sensor_id;sensor_type;location;lat;lon;timestamp;temperature;humidity
2543;DHT22;1116;51.502;7.414;2022-10-30T00:00:24;18.00;7.00
2543;DHT22;1116;51.502;7.414;2022-10-30T00:03:00;18.00;6.00
2543;DHT22;1116;51.502;7.414;2022-10-30T00:05:31;18.10;6.40
2543;DHT22;1116;51.502;7.414;2022-10-30T00:08:03;18.10;5.90
2543;DHT22;1116;51.502;7.414;2022-10-30T00:10:34;18.20;4.60
2543;DHT22;1116;51.502;7.414;2022-10-30T00:13:05;18.30;4.40
2543;DHT22;1116;51.502;7.414;2022-10-30T00:15:37;18.40;3.40
2543;DHT22;1116;51.502;7.414;2022-10-30T00:18:13;18.40;3.90
2543;DHT22;1116;51.502;7.414;2022-10-30T00:20:45;18.50;3.90
2543;DHT22;1116;51.502;7.414;2022-10-30T00:23:16;18.50;2.90
2543;DHT22;1116;51.502;7.414;2022-10-30T00:25:47;18.50;2.30
2543;DHT22;1116;51.502;7.414;2022-10-30T00:28:20;18.60;3.40
2543;DHT22;1116;51.502;7.414;2022-10-30T00:30:51;18.60;4.20
2543;DHT22;1116;51.502;7.414;2022-10-30T00:33:27;18.60;4.20
2543;DHT22;1116;51.502;7.414;2022-10-30T00:36:00;18.60;2.40
2543;DHT22;1116;51.502;7.414;2022-10-30T00:38:32;18.70;2.20
2543;DHT22;1116;51.502;7.414;2022-10-30T00:41:04;18.70;3.70
2543;DHT22;1116;51.502;7.414;2022-10-30T00:43:39;18.70;3.00
2543;DHT22;1116;51.502;7.414;2022-10-30T00:46:17;18.70;3.70
2543;DHT22;1116;51.502;7.414;2022-10-30T00:48:55;18.60;3.10
2543;DHT22;1116;51.502;7.414;2022-10-30T00:51:28;18.60;3.80
2543;DHT22;1116;51.502;7.414;2022-10-30T00:54:02;18.50;3.80
2543;DHT22;1116;51.502;7.414;2022-10-30T00:56:36;18.60;5.30
2543;DHT22;1116;51.502;7.414;2022-10-30T00:59:11;18.50;3.00
2543;DHT22;1116;51.502;7.414;2022-10-30T01:01:45;18.50;3.50
2543;DHT22;1116;51.502;7.414;2022-10-30T01:04:23;18.70;4.40
2543;DHT22;1116;51.502;7.414;2022-10-30T01:06:57;18.70;4.40
2543;DHT22;1116;51.502;7.414;2022-10-30T01:09:29;18.40;4.60
2543;DHT22;1116;51.502;7.414;2022-10-30T01:12:01;18.30;6.40
2543;DHT22;1116;51.502;7.414;2022-10-30T01:14:33;18.30;6.60
2543;DHT22;1116;51.502;7.414;2022-10-30T01:20:21;18.20;6.00
2543;DHT22;1116;51.502;7.414;2022-10-30T01:22:58;18.10;8.30
2543;DHT22;1116;51.502;7.414;2022-10-30T01:25:48;18.00;8.20
2543;DHT22;1116;51.502;7.414;2022-10-30T01:28:32;18.00;9.10
2543;DHT22;1116;51.502;7.414;2022-10-30T01:31:14;17.90;8.50
2543;DHT22;1116;51.502;7.414;2022-10-30T01:33:59;17.80;10.10
2543;DHT22;1116;51.502;7.414;2022-10-30T01:36:42;17.60;10.70
2543;DHT22;1116;51.502;7.414;2022-10-30T01:39:19;17.60;9.80
2543;DHT22;1116;51.502;7.414;2022-10-30T01:41:51;17.40;10.60
2543;DHT22;1116;51.502;7.414;2022-10-30T01:44:24;17.30;11.30
2543;DHT22;1116;51.502;7.414;2022-10-30T01:47:13;17.60;11.50
2543;DHT22;1116;51.502;7.414;2022-10-30T01:50:09;17.30;13.30
2543;DHT22;1116;51.502;7.414;2022-10-30T01:52:54;17.20;12.30
2543;DHT22;1116;51.502;7.414;2022-10-30T01:55:34;17.30;13.10
2543;DHT22;1116;51.502;7.414;2022-10-30T01:58:15;17.20;10.40
2543;DHT22;1116;51.502;7.414;2022-10-30T02:00:51;17.30;11.80
2543;DHT22;1116;51.502;7.414;2022-10-30T02:03:24;17.30;10.50
2543;DHT22;1116;51.502;7.414;2022-10-30T02:05:55;17.40;11.90
2543;DHT22;1116;51.502;7.414;2022-10-30T02:08:33;17.20;12.40
2543;DHT22;1116;51.502;7.414;2022-10-30T02:11:04;17.40;10.60
2543;DHT22;1116;51.502;7.414;2022-10-30T02:13:37;17.40;11.00
2543;DHT22;1116;51.502;7.414;2022-10-30T02:16:09;17.40;9.70
2543;DHT22;1116;51.502;7.414;2022-10-30T02:18:40;17.60;7.90
2543;DHT22;1116;51.502;7.414;2022-10-30T02:21:34;17.70;7.90
2543;DHT22;1116;51.502;7.414;2022-10-30T02:24:07;17.80;6.90
2543;DHT22;1116;51.502;7.414;2022-10-30T02:26:38;17.90;7.40
2543;DHT22;1116;51.502;7.414;2022-10-30T02:29:09;17.90;6.40
2543;DHT22;1116;51.502;7.414;2022-10-30T02:31:41;17.90;8.00
2543;DHT22;1116;51.502;7.414;2022-10-30T02:34:12;17.90;6.90
2543;DHT22;1116;51.502;7.414;2022-10-30T02:36:46;17.90;7.60
2543;DHT22;1116;51.502;7.414;2022-10-30T02:39:18;17.80;6.90
2543;DHT22;1116;51.502;7.414;2022-10-30T02:41:49;17.80;9.30
2543;DHT22;1116;51.502;7.414;2022-10-30T02:44:20;18.00;8.70
2543;DHT22;1116;51.502;7.414;2022-10-30T02:46:51;17.70;9.50
2543;DHT22;1116;51.502;7.414;2022-10-30T02:49:21;17.60;10.10
2543;DHT22;1116;51.502;7.414;2022-10-30T02:51:56;17.50;9.70
2543;DHT22;1116;51.502;7.414;2022-10-30T02:54:27;17.40;10.50
2543;DHT22;1116;51.502;7.414;2022-10-30T02:56:58;17.30;11.50
2543;DHT22;1116;51.502;7.414;2022-10-30T02:59:30;17.20;13.40
2543;DHT22;1116;51.502;7.414;2022-10-30T03:02:01;17.10;11.90
2543;DHT22;1116;51.502;7.414;2022-10-30T03:04:31;17.00;13.40
2543;DHT22;1116;51.502;7.414;2022-10-30T03:07:05;16.80;12.60
2543;DHT22;1116;51.502;7.414;2022-10-30T03:09:36;16.70;14.50
2543;DHT22;1116;51.502;7.414;2022-10-30T03:12:06;16.70;13.80
2543;DHT22;1116;51.502;7.414;2022-10-30T03:14:39;16.60;14.30
2543;DHT22;1116;51.502;7.414;2022-10-30T03:17:10;16.60;15.00
2543;DHT22;1116;51.502;7.414;2022-10-30T03:19:42;16.50;14.90
2543;DHT22;1116;51.502;7.414;2022-10-30T03:22:15;16.50;15.00
2543;DHT22;1116;51.502;7.414;2022-10-30T03:24:46;16.50;14.50
2543;DHT22;1116;51.502;7.414;2022-10-30T03:27:17;16.40;15.80
2543;DHT22;1116;51.502;7.414;2022-10-30T03:29:48;16.40;15.10
2543;DHT22;1116;51.502;7.414;2022-10-30T03:32:19;16.30;15.80
2543;DHT22;1116;51.502;7.414;2022-10-30T03:35:09;16.30;16.40
2543;DHT22;1116;51.502;7.414;2022-10-30T03:37:43;16.20;16.40
2543;DHT22;1116;51.502;7.414;2022-10-30T03:40:15;16.10;16.70
2543;DHT22;1116;51.502;7.414;2022-10-30T03:42:46;16.00;16.80
2543;DHT22;1116;51.502;7.414;2022-10-30T03:45:18;16.00;17.70
2543;DHT22;1116;51.502;7.414;2022-10-30T03:47:49;16.00;17.70
2543;DHT22;1116;51.502;7.414;2022-10-30T03:50:21;15.90;17.80
2543;DHT22;1116;51.502;7.414;2022-10-30T03:52:57;15.80;18.00
2543;DHT22;1116;51.502;7.414;2022-10-30T03:55:28;15.80;18.80
2543;DHT22;1116;51.502;7.414;2022-10-30T03:57:58;15.70;18.70
2543;DHT22;1116;51.502;7.414;2022-10-30T04:00:29;15.70;19.00
2543;DHT22;1116;51.502;7.414;2022-10-30T04:03:00;15.70;19.90
2543;DHT22;1116;51.502;7.414;2022-10-30T04:05:32;15.70;19.50
2543;DHT22;1116;51.502;7.414;2022-10-30T04:08:10;15.70;19.70
2543;DHT22;1116;51.502;7.414;2022-10-30T04:10:44;15.70;20.50
2543;DHT22;1116;51.502;7.414;2022-10-30T04:13:16;15.60;20.40
2543;DHT22;1116;51.502;7.414;2022-10-30T04:15:48;15.50;20.60
2543;DHT22;1116;51.502;7.414;2022-10-30T04:18:25;15.50;21.10
2543;DHT22;1116;51.502;7.414;2022-10-30T04:20:58;15.40;21.50
2543;DHT22;1116;51.502;7.414;2022-10-30T04:23:32;15.80;21.60
2543;DHT22;1116;51.502;7.414;2022-10-30T04:26:03;15.30;22.00
2543;DHT22;1116;51.502;7.414;2022-10-30T04:28:34;15.30;22.10
2543;DHT22;1116;51.502;7.414;2022-10-30T04:31:05;15.20;22.70
2543;DHT22;1116;51.502;7.414;2022-10-30T04:33:36;15.20;23.30
2543;DHT22;1116;51.502;7.414;2022-10-30T04:36:08;15.10;22.40
2543;DHT22;1116;51.502;7.414;2022-10-30T04:38:41;15.10;22.60
2543;DHT22;1116;51.502;7.414;2022-10-30T04:41:13;15.10;22.90
2543;DHT22;1116;51.502;7.414;2022-10-30T04:43:43;15.00;22.70
2543;DHT22;1116;51.502;7.414;2022-10-30T04:46:14;15.30;23.70
2543;DHT22;1116;51.502;7.414;2022-10-30T04:48:47;14.90;23.40
2543;DHT22;1116;51.502;7.414;2022-10-30T04:51:17;14.90;23.60
2543;DHT22;1116;51.502;7.414;2022-10-30T04:53:51;14.90;24.00
2543;DHT22;1116;51.502;7.414;2022-10-30T04:56:22;14.90;23.70
2543;DHT22;1116;51.502;7.414;2022-10-30T04:58:53;14.80;24.30
2543;DHT22;1116;51.502;7.414;2022-10-30T05:01:24;14.80;24.50
2543;DHT22;1116;51.502;7.414;2022-10-30T05:03:55;14.80;24.50
2543;DHT22;1116;51.502;7.414;2022-10-30T05:06:27;14.70;25.00
2543;DHT22;1116;51.502;7.414;2022-10-30T05:09:03;14.70;25.30
2543;DHT22;1116;51.502;7.414;2022-10-30T05:11:34;14.70;24.90
2543;DHT22;1116;51.502;7.414;2022-10-30T05:14:05;14.70;25.70
2543;DHT22;1116;51.502;7.414;2022-10-30T05:16:36;14.70;25.30
2543;DHT22;1116;51.502;7.414;2022-10-30T05:19:07;14.60;25.50
2543;DHT22;1116;51.502;7.414;2022-10-30T05:21:38;14.60;26.30
2543;DHT22;1116;51.502;7.414;2022-10-30T05:24:13;14.60;26.20
2543;DHT22;1116;51.502;7.414;2022-10-30T05:26:45;14.60;26.20
2543;DHT22;1116;51.502;7.414;2022-10-30T05:29:18;14.50;26.20
2543;DHT22;1116;51.502;7.414;2022-10-30T05:31:48;14.50;26.20
2543;DHT22;1116;51.502;7.414;2022-10-30T05:34:21;14.50;26.20
2543;DHT22;1116;51.502;7.414;2022-10-30T05:36:52;14.50;26.20
2543;DHT22;1116;51.502;7.414;2022-10-30T05:39:26;14.40;27.40
2543;DHT22;1116;51.502;7.414;2022-10-30T05:41:57;14.30;27.90
2543;DHT22;1116;51.502;7.414;2022-10-30T05:44:29;14.30;27.60
2543;DHT22;1116;51.502;7.414;2022-10-30T05:47:20;14.30;27.40
2543;DHT22;1116;51.502;7.414;2022-10-30T05:49:50;14.30;27.70
2543;DHT22;1116;51.502;7.414;2022-10-30T05:52:21;14.30;28.10
2543;DHT22;1116;51.502;7.414;2022-10-30T05:54:54;14.40;27.90
2543;DHT22;1116;51.502;7.414;2022-10-30T05:57:27;14.40;27.70
2543;DHT22;1116;51.502;7.414;2022-10-30T05:59:59;14.40;27.50
2543;DHT22;1116;51.502;7.414;2022-10-30T06:02:30;14.40;27.40
2543;DHT22;1116;51.502;7.414;2022-10-30T06:05:02;14.40;27.80
2543;DHT22;1116;51.502;7.414;2022-10-30T06:07:32;14.40;28.90
2543;DHT22;1116;51.502;7.414;2022-10-30T06:10:07;14.30;28.30
2543;DHT22;1116;51.502;7.414;2022-10-30T06:12:38;14.30;28.20
2543;DHT22;1116;51.502;7.414;2022-10-30T06:15:09;14.30;29.00
2543;DHT22;1116;51.502;7.414;2022-10-30T06:17:40;14.30;29.30
2543;DHT22;1116;51.502;7.414;2022-10-30T06:20:13;14.20;29.10
2543;DHT22;1116;51.502;7.414;2022-10-30T06:22:52;14.20;29.40
2543;DHT22;1116;51.502;7.414;2022-10-30T06:25:27;14.20;30.30
2543;DHT22;1116;51.502;7.414;2022-10-30T06:28:04;14.20;31.00
2543;DHT22;1116;51.502;7.414;2022-10-30T06:30:36;14.20;30.30
2543;DHT22;1116;51.502;7.414;2022-10-30T06:33:08;14.30;30.40
2543;DHT22;1116;51.502;7.414;2022-10-30T06:35:39;14.30;30.60
2543;DHT22;1116;51.502;7.414;2022-10-30T06:38:10;14.30;31.70
2543;DHT22;1116;51.502;7.414;2022-10-30T06:40:46;14.30;30.00
2543;DHT22;1116;51.502;7.414;2022-10-30T06:43:18;14.30;29.90
2543;DHT22;1116;51.502;7.414;2022-10-30T06:45:49;14.30;29.90
2543;DHT22;1116;51.502;7.414;2022-10-30T06:48:20;14.30;29.50
2543;DHT22;1116;51.502;7.414;2022-10-30T06:50:55;14.30;29.80
2543;DHT22;1116;51.502;7.414;2022-10-30T06:53:26;14.40;30.20
2543;DHT22;1116;51.502;7.414;2022-10-30T06:56:01;14.40;30.80
2543;DHT22;1116;51.502;7.414;2022-10-30T06:58:34;14.30;28.90
2543;DHT22;1116;51.502;7.414;2022-10-30T07:01:06;14.30;29.30
2543;DHT22;1116;51.502;7.414;2022-10-30T07:03:37;14.30;30.40
2543;DHT22;1116;51.502;7.414;2022-10-30T07:06:08;14.30;30.00
2543;DHT22;1116;51.502;7.414;2022-10-30T07:08:39;14.30;30.20
2543;DHT22;1116;51.502;7.414;2022-10-30T07:11:12;14.30;32.40
2543;DHT22;1116;51.502;7.414;2022-10-30T07:13:43;14.30;30.40
2543;DHT22;1116;51.502;7.414;2022-10-30T07:16:14;14.30;31.90
2543;DHT22;1116;51.502;7.414;2022-10-30T07:18:46;14.30;31.40
2543;DHT22;1116;51.502;7.414;2022-10-30T07:21:18;14.30;30.70
2543;DHT22;1116;51.502;7.414;2022-10-30T07:23:50;14.30;32.10
2543;DHT22;1116;51.502;7.414;2022-10-30T07:26:26;14.40;33.50
2543;DHT22;1116;51.502;7.414;2022-10-30T07:28:57;14.40;31.70
2543;DHT22;1116;51.502;7.414;2022-10-30T07:31:27;14.50;32.10
2543;DHT22;1116;51.502;7.414;2022-10-30T07:34:17;14.50;32.80
2543;DHT22;1116;51.502;7.414;2022-10-30T07:36:48;14.60;32.00
2543;DHT22;1116;51.502;7.414;2022-10-30T07:39:19;14.60;31.40
2543;DHT22;1116;51.502;7.414;2022-10-30T07:41:55;14.60;32.30
2543;DHT22;1116;51.502;7.414;2022-10-30T07:44:26;14.70;34.90
2543;DHT22;1116;51.502;7.414;2022-10-30T07:46:56;14.70;34.50
2543;DHT22;1116;51.502;7.414;2022-10-30T07:49:27;14.80;33.70
2543;DHT22;1116;51.502;7.414;2022-10-30T07:51:58;14.80;33.50
2543;DHT22;1116;51.502;7.414;2022-10-30T07:54:29;14.90;34.30
2543;DHT22;1116;51.502;7.414;2022-10-30T07:57:04;14.90;33.20
2543;DHT22;1116;51.502;7.414;2022-10-30T07:59:35;15.00;34.80
2543;DHT22;1116;51.502;7.414;2022-10-30T08:02:07;15.10;34.80
2543;DHT22;1116;51.502;7.414;2022-10-30T08:04:39;15.20;35.60
2543;DHT22;1116;51.502;7.414;2022-10-30T08:07:09;15.30;36.30
2543;DHT22;1116;51.502;7.414;2022-10-30T08:09:40;15.40;34.90
2543;DHT22;1116;51.502;7.414;2022-10-30T08:12:14;15.50;34.70
2543;DHT22;1116;51.502;7.414;2022-10-30T08:14:44;15.60;34.20
2543;DHT22;1116;51.502;7.414;2022-10-30T08:17:16;15.70;33.30
2543;DHT22;1116;51.502;7.414;2022-10-30T08:19:47;15.80;34.10
2543;DHT22;1116;51.502;7.414;2022-10-30T08:22:18;15.90;31.90
2543;DHT22;1116;51.502;7.414;2022-10-30T08:24:56;16.00;30.00
2543;DHT22;1116;51.502;7.414;2022-10-30T08:27:29;16.30;31.00
2543;DHT22;1116;51.502;7.414;2022-10-30T08:30:00;16.40;28.60
2543;DHT22;1116;51.502;7.414;2022-10-30T08:32:36;16.50;27.10
2543;DHT22;1116;51.502;7.414;2022-10-30T08:35:12;16.60;25.40
2543;DHT22;1116;51.502;7.414;2022-10-30T08:37:47;16.80;23.60
2543;DHT22;1116;51.502;7.414;2022-10-30T08:40:30;16.90;25.10
2543;DHT22;1116;51.502;7.414;2022-10-30T08:43:04;17.00;25.20
2543;DHT22;1116;51.502;7.414;2022-10-30T08:45:35;16.80;23.50
2543;DHT22;1116;51.502;7.414;2022-10-30T08:48:09;17.20;23.10
2543;DHT22;1116;51.502;7.414;2022-10-30T08:50:41;17.40;22.80
2543;DHT22;1116;51.502;7.414;2022-10-30T08:53:13;17.50;21.10
2543;DHT22;1116;51.502;7.414;2022-10-30T08:55:44;17.50;21.80
2543;DHT22;1116;51.502;7.414;2022-10-30T08:58:18;17.60;19.80
2543;DHT22;1116;51.502;7.414;2022-10-30T09:00:49;17.70;21.10
2543;DHT22;1116;51.502;7.414;2022-10-30T09:03:29;17.70;19.20
2543;DHT22;1116;51.502;7.414;2022-10-30T09:06:00;17.90;19.90
2543;DHT22;1116;51.502;7.414;2022-10-30T09:08:37;17.90;16.30
2543;DHT22;1116;51.502;7.414;2022-10-30T09:11:16;18.20;16.90
2543;DHT22;1116;51.502;7.414;2022-10-30T09:14:18;18.10;14.70
2543;DHT22;1116;51.502;7.414;2022-10-30T09:17:02;18.30;13.10
2543;DHT22;1116;51.502;7.414;2022-10-30T09:19:40;18.20;13.90
2543;DHT22;1116;51.502;7.414;2022-10-30T09:22:23;18.30;13.00
2543;DHT22;1116;51.502;7.414;2022-10-30T09:25:04;18.70;13.30
2543;DHT22;1116;51.502;7.414;2022-10-30T09:27:48;18.50;13.70
2543;DHT22;1116;51.502;7.414;2022-10-30T09:30:41;18.60;11.90
2543;DHT22;1116;51.502;7.414;2022-10-30T09:33:47;18.90;11.60
2543;DHT22;1116;51.502;7.414;2022-10-30T09:36:18;18.90;11.60
2543;DHT22;1116;51.502;7.414;2022-10-30T09:38:49;18.90;10.10
2543;DHT22;1116;51.502;7.414;2022-10-30T09:41:33;18.90;11.60
2543;DHT22;1116;51.502;7.414;2022-10-30T09:44:19;19.00;10.70
2543;DHT22;1116;51.502;7.414;2022-10-30T09:47:08;19.10;9.00
2543;DHT22;1116;51.502;7.414;2022-10-30T09:49:59;19.20;9.00
2543;DHT22;1116;51.502;7.414;2022-10-30T09:52:37;19.40;8.40
2543;DHT22;1116;51.502;7.414;2022-10-30T09:55:21;19.50;9.60
2543;DHT22;1116;51.502;7.414;2022-10-30T09:58:00;19.60;7.40
2543;DHT22;1116;51.502;7.414;2022-10-30T10:00:37;19.60;7.60
2543;DHT22;1116;51.502;7.414;2022-10-30T10:03:24;19.70;8.60
2543;DHT22;1116;51.502;7.414;2022-10-30T10:05:58;19.80;6.60
2543;DHT22;1116;51.502;7.414;2022-10-30T10:08:35;19.90;6.00
2543;DHT22;1116;51.502;7.414;2022-10-30T10:11:09;20.00;6.90
2543;DHT22;1116;51.502;7.414;2022-10-30T10:13:48;20.00;5.10
2543;DHT22;1116;51.502;7.414;2022-10-30T10:16:25;20.10;4.90
2543;DHT22;1116;51.502;7.414;2022-10-30T10:19:08;20.10;4.70
2543;DHT22;1116;51.502;7.414;2022-10-30T10:21:43;20.20;5.90
2543;DHT22;1116;51.502;7.414;2022-10-30T10:24:17;20.30;5.40
2543;DHT22;1116;51.502;7.414;2022-10-30T10:26:55;20.40;3.40
2543;DHT22;1116;51.502;7.414;2022-10-30T10:29:39;20.50;5.10
2543;DHT22;1116;51.502;7.414;2022-10-30T10:32:41;20.50;5.60
2543;DHT22;1116;51.502;7.414;2022-10-30T10:35:31;20.60;3.50
2543;DHT22;1116;51.502;7.414;2022-10-30T10:38:15;20.60;5.20
2543;DHT22;1116;51.502;7.414;2022-10-30T10:40:53;20.70;3.50
2543;DHT22;1116;51.502;7.414;2022-10-30T10:43:35;20.90;3.70
2543;DHT22;1116;51.502;7.414;2022-10-30T10:46:21;20.90;3.20
2543;DHT22;1116;51.502;7.414;2022-10-30T10:49:06;21.10;3.40
2543;DHT22;1116;51.502;7.414;2022-10-30T10:51:48;21.00;3.70
2543;DHT22;1116;51.502;7.414;2022-10-30T10:54:22;21.00;2.40
2543;DHT22;1116;51.502;7.414;2022-10-30T10:56:57;21.20;3.90
2543;DHT22;1116;51.502;7.414;2022-10-30T10:59:33;21.30;3.90
2543;DHT22;1116;51.502;7.414;2022-10-30T11:02:26;21.40;1.10
2543;DHT22;1116;51.502;7.414;2022-10-30T11:05:03;21.50;1.00
2543;DHT22;1116;51.502;7.414;2022-10-30T11:07:45;21.80;1.00
2543;DHT22;1116;51.502;7.414;2022-10-30T11:10:18;21.60;1.00
2543;DHT22;1116;51.502;7.414;2022-10-30T11:12:53;21.70;2.50
2543;DHT22;1116;51.502;7.414;2022-10-30T11:15:33;21.80;1.00
2543;DHT22;1116;51.502;7.414;2022-10-30T11:18:06;21.80;1.00
2543;DHT22;1116;51.502;7.414;2022-10-30T11:20:41;21.90;1.00
2543;DHT22;1116;51.502;7.414;2022-10-30T11:23:32;22.00;1.00
2543;DHT22;1116;51.502;7.414;2022-10-30T11:26:32;21.80;1.00
2543;DHT22;1116;51.502;7.414;2022-10-30T11:29:11;22.30;1.00
2543;DHT22;1116;51.502;7.414;2022-10-30T11:31:43;22.40;1.00
2543;DHT22;1116;51.502;7.414;2022-10-30T11:34:30;22.40;1.00
2543;DHT22;1116;51.502;7.414;2022-10-30T11:37:01;22.50;1.00
2543;DHT22;1116;51.502;7.414;2022-10-30T11:39:35;22.70;1.00
2543;DHT22;1116;51.502;7.414;2022-10-30T11:42:12;22.80;1.00
2543;DHT22;1116;51.502;7.414;2022-10-30T11:44:47;22.80;1.00
2543;DHT22;1116;51.502;7.414;2022-10-30T11:47:27;23.00;1.00
2543;DHT22;1116;51.502;7.414;2022-10-30T11:50:05;23.00;1.00
2543;DHT22;1116;51.502;7.414;2022-10-30T11:52:39;23.10;1.00
2543;DHT22;1116;51.502;7.414;2022-10-30T11:55:18;23.10;1.00
2543;DHT22;1116;51.502;7.414;2022-10-30T11:57:54;23.20;1.00
2543;DHT22;1116;51.502;7.414;2022-10-30T12:00:27;23.20;1.00
2543;DHT22;1116;51.502;7.414;2022-10-30T12:03:00;23.20;1.00
2543;DHT22;1116;51.502;7.414;2022-10-30T12:05:36;23.30;1.00
2543;DHT22;1116;51.502;7.414;2022-10-30T12:08:17;23.30;1.00
2543;DHT22;1116;51.502;7.414;2022-10-30T12:11:00;23.50;1.00
2543;DHT22;1116;51.502;7.414;2022-10-30T12:13:38;23.40;1.00
2543;DHT22;1116;51.502;7.414;2022-10-30T12:16:14;23.40;1.00
2543;DHT22;1116;51.502;7.414;2022-10-30T12:18:53;23.50;1.00
2543;DHT22;1116;51.502;7.414;2022-10-30T12:21:28;23.70;1.00
2543;DHT22;1116;51.502;7.414;2022-10-30T12:24:02;23.50;1.00
2543;DHT22;1116;51.502;7.414;2022-10-30T12:26:39;23.60;1.00
2543;DHT22;1116;51.502;7.414;2022-10-30T12:29:14;24.00;1.00
2543;DHT22;1116;51.502;7.414;2022-10-30T12:31:52;23.70;1.00
2543;DHT22;1116;51.502;7.414;2022-10-30T12:34:33;24.00;1.00
2543;DHT22;1116;51.502;7.414;2022-10-30T12:37:12;24.30;1.00
2543;DHT22;1116;51.502;7.414;2022-10-30T12:39:57;23.90;1.00
2543;DHT22;1116;51.502;7.414;2022-10-30T12:42:35;23.90;1.00
2543;DHT22;1116;51.502;7.414;2022-10-30T12:45:12;23.90;1.00
2543;DHT22;1116;51.502;7.414;2022-10-30T12:47:49;23.80;1.00
2543;DHT22;1116;51.502;7.414;2022-10-30T12:50:24;23.80;1.00
2543;DHT22;1116;51.502;7.414;2022-10-30T12:53:00;23.70;1.00
2543;DHT22;1116;51.502;7.414;2022-10-30T12:55:37;23.70;1.00
2543;DHT22;1116;51.502;7.414;2022-10-30T12:58:18;23.70;1.00
2543;DHT22;1116;51.502;7.414;2022-10-30T13:00:54;23.60;1.00
2543;DHT22;1116;51.502;7.414;2022-10-30T13:03:31;23.50;1.00
2543;DHT22;1116;51.502;7.414;2022-10-30T13:06:12;23.50;1.00
2543;DHT22;1116;51.502;7.414;2022-10-30T13:08:50;23.50;1.00
2543;DHT22;1116;51.502;7.414;2022-10-30T13:11:35;23.60;1.00
2543;DHT22;1116;51.502;7.414;2022-10-30T13:14:15;23.40;1.00
2543;DHT22;1116;51.502;7.414;2022-10-30T13:16:49;23.40;1.00
2543;DHT22;1116;51.502;7.414;2022-10-30T13:19:20;23.60;1.00
2543;DHT22;1116;51.502;7.414;2022-10-30T13:21:54;23.70;1.00
2543;DHT22;1116;51.502;7.414;2022-10-30T13:24:39;23.50;1.00
2543;DHT22;1116;51.502;7.414;2022-10-30T13:27:16;23.50;1.00
2543;DHT22;1116;51.502;7.414;2022-10-30T13:29:55;23.50;1.00
2543;DHT22;1116;51.502;7.414;2022-10-30T13:32:37;23.40;1.00
2543;DHT22;1116;51.502;7.414;2022-10-30T13:35:18;23.40;1.00
2543;DHT22;1116;51.502;7.414;2022-10-30T13:37:56;23.40;1.00
2543;DHT22;1116;51.502;7.414;2022-10-30T13:40:34;23.40;1.00
2543;DHT22;1116;51.502;7.414;2022-10-30T13:43:17;23.30;1.00
2543;DHT22;1116;51.502;7.414;2022-10-30T13:46:22;23.30;1.00
2543;DHT22;1116;51.502;7.414;2022-10-30T13:49:13;23.40;1.00
2543;DHT22;1116;51.502;7.414;2022-10-30T13:51:51;23.30;1.00
2543;DHT22;1116;51.502;7.414;2022-10-30T13:54:29;23.30;1.00
2543;DHT22;1116;51.502;7.414;2022-10-30T13:57:07;23.20;1.00
2543;DHT22;1116;51.502;7.414;2022-10-30T13:59:48;23.20;1.00
2543;DHT22;1116;51.502;7.414;2022-10-30T14:02:34;23.20;1.00
2543;DHT22;1116;51.502;7.414;2022-10-30T14:05:18;23.20;1.00
2543;DHT22;1116;51.502;7.414;2022-10-30T14:07:56;23.10;1.00
2543;DHT22;1116;51.502;7.414;2022-10-30T14:10:44;23.20;1.00
2543;DHT22;1116;51.502;7.414;2022-10-30T14:13:24;22.90;1.00
2543;DHT22;1116;51.502;7.414;2022-10-30T14:15:59;22.90;1.00
2543;DHT22;1116;51.502;7.414;2022-10-30T14:19:00;22.80;1.00
2543;DHT22;1116;51.502;7.414;2022-10-30T14:21:37;22.80;1.00
2543;DHT22;1116;51.502;7.414;2022-10-30T14:24:14;22.80;1.00
2543;DHT22;1116;51.502;7.414;2022-10-30T14:26:51;22.80;1.00
2543;DHT22;1116;51.502;7.414;2022-10-30T14:29:40;22.70;1.00
2543;DHT22;1116;51.502;7.414;2022-10-30T14:35:37;22.60;1.00
2543;DHT22;1116;51.502;7.414;2022-10-30T14:38:29;22.50;1.00
2543;DHT22;1116;51.502;7.414;2022-10-30T14:41:36;22.60;1.00
2543;DHT22;1116;51.502;7.414;2022-10-30T14:47:27;22.40;1.00
2543;DHT22;1116;51.502;7.414;2022-10-30T14:50:02;22.40;1.00
2543;DHT22;1116;51.502;7.414;2022-10-30T14:52:44;22.40;1.00
2543;DHT22;1116;51.502;7.414;2022-10-30T14:55:25;22.30;1.00
2543;DHT22;1116;51.502;7.414;2022-10-30T14:58:16;22.30;1.00
2543;DHT22;1116;51.502;7.414;2022-10-30T15:00:50;22.20;1.00
2543;DHT22;1116;51.502;7.414;2022-10-30T15:03:35;22.30;1.00
2543;DHT22;1116;51.502;7.414;2022-10-30T15:06:19;22.00;1.00
2543;DHT22;1116;51.502;7.414;2022-10-30T15:09:07;22.00;1.00
2543;DHT22;1116;51.502;7.414;2022-10-30T15:12:04;21.90;1.00
2543;DHT22;1116;51.502;7.414;2022-10-30T15:14:41;21.80;1.30
2543;DHT22;1116;51.502;7.414;2022-10-30T15:17:26;21.70;4.20
2543;DHT22;1116;51.502;7.414;2022-10-30T15:20:00;21.60;4.10
2543;DHT22;1116;51.502;7.414;2022-10-30T15:22:33;21.40;4.00
2543;DHT22;1116;51.502;7.414;2022-10-30T15:25:14;21.30;3.90
2543;DHT22;1116;51.502;7.414;2022-10-30T15:27:47;21.20;4.40
2543;DHT22;1116;51.502;7.414;2022-10-30T15:30:21;21.10;4.80
2543;DHT22;1116;51.502;7.414;2022-10-30T15:32:55;21.40;4.30
2543;DHT22;1116;51.502;7.414;2022-10-30T15:35:27;21.00;6.10
2543;DHT22;1116;51.502;7.414;2022-10-30T15:38:03;20.90;5.80
2543;DHT22;1116;51.502;7.414;2022-10-30T15:40:37;20.80;5.50
2543;DHT22;1116;51.502;7.414;2022-10-30T15:43:11;20.60;6.80
2543;DHT22;1116;51.502;7.414;2022-10-30T15:45:45;20.60;7.20
2543;DHT22;1116;51.502;7.414;2022-10-30T15:48:21;20.40;6.90
2543;DHT22;1116;51.502;7.414;2022-10-30T15:50:57;20.40;6.90
2543;DHT22;1116;51.502;7.414;2022-10-30T15:53:34;20.20;7.90
2543;DHT22;1116;51.502;7.414;2022-10-30T15:56:16;20.20;8.50
2543;DHT22;1116;51.502;7.414;2022-10-30T15:58:51;20.00;8.20
2543;DHT22;1116;51.502;7.414;2022-10-30T16:01:26;19.90;9.10
2543;DHT22;1116;51.502;7.414;2022-10-30T16:03:59;19.90;9.50
2543;DHT22;1116;51.502;7.414;2022-10-30T16:06:31;19.70;10.00
2543;DHT22;1116;51.502;7.414;2022-10-30T16:09:03;19.60;9.60
2543;DHT22;1116;51.502;7.414;2022-10-30T16:11:36;19.60;9.80
2543;DHT22;1116;51.502;7.414;2022-10-30T16:14:09;19.50;9.60
2543;DHT22;1116;51.502;7.414;2022-10-30T16:16:43;19.40;9.70
2543;DHT22;1116;51.502;7.414;2022-10-30T16:19:18;19.30;9.70
2543;DHT22;1116;51.502;7.414;2022-10-30T16:21:57;19.20;10.30
2543;DHT22;1116;51.502;7.414;2022-10-30T16:24:31;19.10;10.30
2543;DHT22;1116;51.502;7.414;2022-10-30T16:27:12;19.10;10.90
2543;DHT22;1116;51.502;7.414;2022-10-30T16:29:45;19.30;8.00
2543;DHT22;1116;51.502;7.414;2022-10-30T16:32:19;19.20;6.20
2543;DHT22;1116;51.502;7.414;2022-10-30T16:34:55;19.30;5.40
2543;DHT22;1116;51.502;7.414;2022-10-30T16:37:33;19.70;4.20
2543;DHT22;1116;51.502;7.414;2022-10-30T16:40:11;19.50;4.00
2543;DHT22;1116;51.502;7.414;2022-10-30T16:42:49;19.60;3.80
2543;DHT22;1116;51.502;7.414;2022-10-30T16:45:43;19.60;2.80
2543;DHT22;1116;51.502;7.414;2022-10-30T16:48:20;19.60;2.80
2543;DHT22;1116;51.502;7.414;2022-10-30T16:51:01;19.60;2.50
2543;DHT22;1116;51.502;7.414;2022-10-30T16:53:33;19.70;2.50
2543;DHT22;1116;51.502;7.414;2022-10-30T16:56:16;19.70;1.90
2543;DHT22;1116;51.502;7.414;2022-10-30T16:58:51;19.60;1.40
2543;DHT22;1116;51.502;7.414;2022-10-30T17:01:27;19.70;1.70
2543;DHT22;1116;51.502;7.414;2022-10-30T17:04:01;19.60;1.80
2543;DHT22;1116;51.502;7.414;2022-10-30T17:06:38;19.60;1.20
2543;DHT22;1116;51.502;7.414;2022-10-30T17:09:20;19.60;2.60
2543;DHT22;1116;51.502;7.414;2022-10-30T17:12:05;19.50;1.30
2543;DHT22;1116;51.502;7.414;2022-10-30T17:14:48;19.50;1.90
2543;DHT22;1116;51.502;7.414;2022-10-30T17:17:25;19.50;1.30